createdAt,value
2018-12-19T00:01:17.285Z,19.25
2018-12-19T00:03:44.500Z,20.32
2018-12-19T00:06:11.801Z,19.75
2018-12-19T00:08:39.077Z,21.05
2018-12-19T00:11:06.300Z,19.77
2018-12-19T00:13:33.633Z,20.75
2018-12-19T00:16:00.857Z,21.73
2018-12-19T00:18:28.067Z,25.43
2018-12-19T00:20:55.308Z,22.25
2018-12-19T00:23:22.532Z,22.75
2018-12-19T00:25:49.839Z,22.15
2018-12-19T00:28:17.052Z,20.62
2018-12-19T00:30:44.281Z,23.25
2018-12-19T00:33:11.612Z,20.12
2018-12-19T00:35:38.819Z,19.98
2018-12-19T00:38:06.028Z,20.77
2018-12-19T00:40:33.249Z,19.65
2018-12-19T00:43:00.471Z,20.25
2018-12-19T00:45:27.689Z,20.25
2018-12-19T00:47:54.916Z,20.70
2018-12-19T00:50:22.224Z,19.65
2018-12-19T00:52:49.445Z,20.23
2018-12-19T00:55:16.743Z,18.80
2018-12-19T00:57:44.069Z,20.02
2018-12-19T01:00:11.516Z,22.37
2018-12-19T01:02:38.900Z,21.40
2018-12-19T01:05:06.341Z,19.15
2018-12-19T01:07:33.572Z,20.20
2018-12-19T01:10:00.871Z,20.23
2018-12-19T01:12:28.108Z,21.52
2018-12-19T01:14:55.352Z,21.12
2018-12-19T01:17:22.572Z,20.48
2018-12-19T01:19:49.788Z,22.93
2018-12-19T01:22:17.015Z,20.68
2018-12-19T01:24:44.259Z,21.55
2018-12-19T01:27:11.481Z,20.88
2018-12-19T01:29:38.697Z,21.73
2018-12-19T01:32:05.888Z,21.48
2018-12-19T01:34:33.124Z,24.45
2018-12-19T01:37:00.576Z,22.73
2018-12-19T01:39:27.797Z,24.37
2018-12-19T01:41:55.024Z,22.75
2018-12-19T01:44:22.267Z,24.12
2018-12-19T01:46:49.473Z,25.17
2018-12-19T01:49:16.700Z,22.15
2018-12-19T01:51:44.022Z,20.92
2018-12-19T01:54:11.273Z,20.60
2018-12-19T01:56:38.572Z,22.62
2018-12-19T01:59:05.848Z,23.77
2018-12-19T02:01:33.244Z,23.90
2018-12-19T02:04:00.501Z,22.42
2018-12-19T02:06:27.744Z,22.65
2018-12-19T02:08:55.078Z,24.07
2018-12-19T02:11:22.301Z,24.72
2018-12-19T02:13:49.529Z,24.47
2018-12-19T02:16:16.790Z,22.70
2018-12-19T02:18:44.030Z,23.77
2018-12-19T02:21:11.305Z,24.23
2018-12-19T02:23:38.631Z,22.58
2018-12-19T02:26:05.841Z,23.35
2018-12-19T02:28:33.177Z,23.45
2018-12-19T02:31:00.416Z,25.12
2018-12-19T02:33:27.703Z,21.90
2018-12-19T02:35:55.012Z,23.65
2018-12-19T02:38:22.305Z,22.30
2018-12-19T02:40:49.657Z,23.70
2018-12-19T02:43:16.878Z,28.98
2018-12-19T02:45:44.145Z,28.10
2018-12-19T02:48:11.370Z,26.70
2018-12-19T02:50:38.598Z,26.48
2018-12-19T02:53:05.829Z,28.90
2018-12-19T02:55:33.060Z,29.25
2018-12-19T02:58:00.397Z,24.50
2018-12-19T03:00:27.748Z,24.18
2018-12-19T03:02:54.961Z,22.60
2018-12-19T03:05:22.197Z,24.37
2018-12-19T03:07:49.452Z,22.40
2018-12-19T03:10:16.684Z,25.65
2018-12-19T03:12:43.913Z,23.47
2018-12-19T03:15:11.140Z,22.70
2018-12-19T03:17:38.464Z,27.77
2018-12-19T03:20:05.793Z,24.67
2018-12-19T03:22:33.017Z,23.75
2018-12-19T03:25:00.225Z,23.32
2018-12-19T03:27:27.560Z,23.50
2018-12-19T03:29:54.822Z,22.70
2018-12-19T03:32:22.049Z,25.30
2018-12-19T03:34:49.265Z,23.10
2018-12-19T03:37:16.476Z,24.82
2018-12-19T03:39:49.998Z,23.20
2018-12-19T03:42:12.911Z,22.62
2018-12-19T03:44:40.237Z,22.40
2018-12-19T03:47:07.468Z,22.40
2018-12-19T03:49:35.291Z,23.07
2018-12-19T03:52:02.641Z,24.45
2018-12-19T03:54:29.987Z,28.20
2018-12-19T03:56:57.461Z,27.73
2018-12-19T03:59:24.706Z,24.10
2018-12-19T04:01:52.257Z,23.95
2018-12-19T04:04:19.484Z,25.30
2018-12-19T04:06:46.765Z,24.40
2018-12-19T04:09:13.990Z,24.02
2018-12-19T04:11:41.363Z,23.77
2018-12-19T04:14:08.592Z,20.97
2018-12-19T04:16:35.820Z,24.63
2018-12-19T04:19:03.064Z,24.30
2018-12-19T04:21:30.284Z,26.75
2018-12-19T04:23:58.318Z,25.08
2018-12-19T04:26:25.653Z,23.60
2018-12-19T04:28:52.886Z,24.37
2018-12-19T04:31:20.201Z,23.05
2018-12-19T04:33:47.484Z,22.50
2018-12-19T04:36:14.705Z,23.70
2018-12-19T04:38:42.140Z,24.27
2018-12-19T04:41:09.339Z,24.82
2018-12-19T04:43:36.566Z,24.02
2018-12-19T04:46:03.838Z,23.35
2018-12-19T04:48:31.080Z,24.60
2018-12-19T04:50:58.312Z,26.12
2018-12-19T04:53:25.567Z,25.88
2018-12-19T04:55:52.800Z,24.02
2018-12-19T04:58:20.025Z,24.65
2018-12-19T05:00:47.258Z,26.20
2018-12-19T05:03:14.509Z,25.90
2018-12-19T05:05:41.737Z,24.55
2018-12-19T05:08:09.016Z,27.65
2018-12-19T05:10:36.245Z,25.50
2018-12-19T05:13:03.601Z,24.55
2018-12-19T05:15:31.034Z,25.35
2018-12-19T05:17:58.249Z,25.25
2018-12-19T05:20:25.500Z,25.15
2018-12-19T05:22:52.778Z,24.47
2018-12-19T05:25:19.992Z,25.00
2018-12-19T05:27:47.206Z,24.45
2018-12-19T05:30:14.501Z,24.50
2018-12-19T05:32:41.923Z,27.55
2018-12-19T05:35:09.278Z,31.77
2018-12-19T05:37:36.715Z,26.52
2018-12-19T05:40:05.589Z,31.23
2018-12-19T05:42:32.884Z,26.87
2018-12-19T05:45:00.233Z,30.17
2018-12-19T05:47:27.466Z,27.67
2018-12-19T05:49:55.215Z,26.02
2018-12-19T05:52:25.115Z,27.65
2018-12-19T05:54:52.493Z,28.42
2018-12-19T05:57:20.256Z,29.70
2018-12-19T05:59:47.507Z,30.15
2018-12-19T06:02:14.739Z,30.82
2018-12-19T06:04:41.956Z,31.05
2018-12-19T06:07:09.191Z,31.10
2018-12-19T06:09:36.435Z,29.42
2018-12-19T06:12:03.663Z,29.65
2018-12-19T06:14:30.872Z,26.90
2018-12-19T06:16:58.164Z,27.75
2018-12-19T06:19:25.372Z,28.62
2018-12-19T06:21:52.806Z,32.42
2018-12-19T06:24:20.196Z,31.37
2018-12-19T06:26:47.400Z,33.98
2018-12-19T06:29:14.627Z,33.23
2018-12-19T06:31:41.894Z,25.95
2018-12-19T06:34:09.154Z,33.55
2018-12-19T06:36:36.755Z,32.67
2018-12-19T06:39:06.283Z,29.07
2018-12-19T06:41:33.564Z,26.20
2018-12-19T06:44:00.794Z,27.00
2018-12-19T06:46:28.007Z,32.58
2018-12-19T06:48:55.221Z,31.00
2018-12-19T06:51:22.442Z,30.08
2018-12-19T06:53:49.645Z,36.48
2018-12-19T06:56:16.864Z,35.25
2018-12-19T06:58:44.140Z,35.03
2018-12-19T07:01:11.349Z,31.77
2018-12-19T07:03:38.553Z,26.37
2018-12-19T07:06:05.763Z,24.27
2018-12-19T07:08:32.969Z,25.72
2018-12-19T07:11:00.171Z,24.30
2018-12-19T07:13:27.376Z,22.60
2018-12-19T07:15:54.685Z,24.05
2018-12-19T07:18:21.896Z,32.05
2018-12-19T07:20:49.211Z,105.03
2018-12-19T07:23:16.489Z,52.27
2018-12-19T07:25:43.687Z,78.85
2018-12-19T07:28:10.895Z,75.95
2018-12-19T07:30:38.097Z,83.80
2018-12-19T07:33:05.325Z,65.85
2018-12-19T07:35:32.536Z,64.60
2018-12-19T07:37:59.765Z,39.33
2018-12-19T07:40:26.963Z,42.03
2018-12-19T07:42:54.168Z,35.43
2018-12-19T07:45:21.533Z,35.60
2018-12-19T07:47:48.775Z,35.08
2018-12-19T07:50:15.983Z,36.13
2018-12-19T07:52:43.327Z,35.23
2018-12-19T07:55:10.549Z,33.10
2018-12-19T07:57:37.869Z,31.48
2018-12-19T08:00:05.370Z,33.05
2018-12-19T08:02:32.593Z,33.30
2018-12-19T08:04:59.926Z,35.50
2018-12-19T08:07:27.159Z,36.55
2018-12-19T08:09:54.377Z,38.78
2018-12-19T08:12:21.601Z,36.40
2018-12-19T08:14:50.836Z,29.37
2018-12-19T08:17:18.055Z,29.87
2018-12-19T08:19:45.287Z,28.90
2018-12-19T08:22:12.488Z,30.48
2018-12-19T08:24:39.696Z,26.68
2018-12-19T08:27:06.949Z,29.45
2018-12-19T08:29:34.149Z,34.83
2018-12-19T08:32:01.563Z,36.15
2018-12-19T08:34:28.828Z,30.92
2018-12-19T08:36:56.049Z,29.23
2018-12-19T08:39:23.492Z,29.00
2018-12-19T08:41:50.941Z,25.85
2018-12-19T08:44:18.171Z,26.75
2018-12-19T08:46:45.417Z,24.80
2018-12-19T08:49:12.657Z,26.40
2018-12-19T08:51:39.880Z,25.85
2018-12-19T08:54:07.124Z,23.77
2018-12-19T08:56:34.474Z,24.15
2018-12-19T08:59:01.710Z,23.20
2018-12-19T09:01:28.949Z,24.82
2018-12-19T09:03:56.277Z,25.27
2018-12-19T09:06:23.533Z,24.90
2018-12-19T09:08:50.756Z,22.65
2018-12-19T09:11:17.986Z,26.85
2018-12-19T09:13:45.205Z,27.10
2018-12-19T09:16:12.440Z,25.90
2018-12-19T09:18:39.645Z,26.33
2018-12-19T09:21:06.987Z,26.20
2018-12-19T09:23:34.218Z,27.13
2018-12-19T09:26:01.444Z,24.12
2018-12-19T09:28:28.661Z,24.77
2018-12-19T09:30:55.925Z,25.97
2018-12-19T09:33:27.356Z,25.75
2018-12-19T09:35:52.482Z,25.70
2018-12-19T09:38:19.694Z,23.60
2018-12-19T09:40:47.029Z,25.08
2018-12-19T09:43:14.248Z,24.15
2018-12-19T09:45:41.458Z,25.02
2018-12-19T09:48:08.694Z,23.47
2018-12-19T09:50:35.935Z,23.55
2018-12-19T09:53:03.287Z,23.35
2018-12-19T09:55:30.526Z,25.60
2018-12-19T09:57:57.742Z,25.92
2018-12-19T10:00:26.832Z,24.82
2018-12-19T10:02:54.238Z,24.72
2018-12-19T10:05:21.734Z,26.70
2018-12-19T10:07:49.045Z,25.15
2018-12-19T10:10:16.285Z,24.77
2018-12-19T10:12:43.508Z,27.15
2018-12-19T10:15:10.738Z,27.22
2018-12-19T10:17:40.919Z,26.87
2018-12-19T10:20:07.489Z,29.63
2018-12-19T10:22:34.724Z,32.25
2018-12-19T10:25:07.788Z,32.60
2018-12-19T10:27:35.021Z,34.50
2018-12-19T10:30:02.487Z,35.70
2018-12-19T10:32:35.483Z,32.95
2018-12-19T10:35:03.012Z,32.28
2018-12-19T10:37:30.229Z,33.73
2018-12-19T10:39:57.562Z,34.00
2018-12-19T10:42:24.807Z,31.93
2018-12-19T10:44:52.021Z,30.08
2018-12-19T10:47:19.370Z,29.12
2018-12-19T10:49:46.588Z,29.70
2018-12-19T10:52:13.812Z,32.75
2018-12-19T10:54:41.147Z,35.13
2018-12-19T10:57:08.389Z,34.73
2018-12-19T10:59:35.661Z,35.20
2018-12-19T11:02:03.111Z,28.92
2018-12-19T11:04:30.342Z,31.40
2018-12-19T11:06:57.583Z,30.95
2018-12-19T11:09:24.810Z,33.60
2018-12-19T11:11:52.079Z,31.93
2018-12-19T11:14:19.287Z,29.98
2018-12-19T11:16:46.629Z,30.35
2018-12-19T11:19:13.936Z,30.43
2018-12-19T11:21:41.140Z,32.42
2018-12-19T11:24:08.579Z,32.58
2018-12-19T11:26:35.924Z,33.42
2018-12-19T11:29:03.377Z,34.13
2018-12-19T11:31:30.717Z,29.57
2018-12-19T11:33:57.939Z,29.27
2018-12-19T11:36:25.271Z,29.65
2018-12-19T11:38:52.520Z,29.25
2018-12-19T11:41:19.745Z,31.95
2018-12-19T11:43:46.989Z,29.50
2018-12-19T11:46:14.210Z,30.80
2018-12-19T11:48:41.427Z,29.90
2018-12-19T11:51:08.644Z,29.12
2018-12-19T11:53:35.888Z,30.92
2018-12-19T11:56:03.132Z,30.45
2018-12-19T11:58:30.373Z,31.60
2018-12-19T12:00:58.037Z,31.17
2018-12-19T12:03:25.272Z,36.50
2018-12-19T12:05:52.491Z,34.65
2018-12-19T12:08:19.736Z,31.97
2018-12-19T12:10:47.075Z,32.23
2018-12-19T12:13:14.279Z,32.25
2018-12-19T12:15:41.502Z,34.13
2018-12-19T12:18:08.716Z,28.80
2018-12-19T12:20:36.053Z,32.58
2018-12-19T12:23:03.379Z,31.17
2018-12-19T12:25:30.843Z,30.70
2018-12-19T12:27:58.058Z,28.30
2018-12-19T12:30:25.289Z,36.23
2018-12-19T12:32:52.503Z,37.70
2018-12-19T12:35:19.737Z,29.60
2018-12-19T12:37:46.983Z,32.08
2018-12-19T12:40:14.237Z,32.83
2018-12-19T12:42:41.457Z,34.33
2018-12-19T12:45:08.683Z,35.65
2018-12-19T12:47:35.907Z,35.03
2018-12-19T12:50:03.898Z,30.27
2018-12-19T12:52:31.129Z,34.35
2018-12-19T12:54:58.359Z,33.02
2018-12-19T12:57:25.568Z,33.50
2018-12-19T12:59:52.789Z,33.65
2018-12-19T13:02:20.027Z,29.60
2018-12-19T13:04:47.549Z,33.05
2018-12-19T13:07:14.755Z,32.80
2018-12-19T13:09:41.957Z,30.57
2018-12-19T13:12:09.178Z,31.33
2018-12-19T13:14:36.395Z,34.63
2018-12-19T13:17:03.620Z,33.92
2018-12-19T13:19:30.832Z,40.43
2018-12-19T13:21:58.054Z,37.33
2018-12-19T13:24:25.375Z,34.50
2018-12-19T13:26:52.591Z,32.78
2018-12-19T13:29:19.793Z,34.80
2018-12-19T13:31:47.336Z,43.13
2018-12-19T13:34:14.550Z,38.33
2018-12-19T13:36:41.773Z,39.65
2018-12-19T13:39:09.116Z,34.30
2018-12-19T13:41:36.324Z,30.97
2018-12-19T13:44:03.662Z,29.72
2018-12-19T13:46:30.902Z,30.77
2018-12-19T13:48:58.247Z,34.43
2018-12-19T13:51:25.565Z,32.30
2018-12-19T13:53:52.799Z,32.48
2018-12-19T13:56:20.147Z,29.12
2018-12-19T13:58:47.601Z,30.27
2018-12-19T14:01:14.868Z,31.00
2018-12-19T14:03:42.124Z,31.75
2018-12-19T14:06:09.351Z,33.88
2018-12-19T14:08:36.675Z,34.55
2018-12-19T14:11:03.893Z,30.80
2018-12-19T14:13:31.122Z,31.20
2018-12-19T14:15:58.437Z,33.08
2018-12-19T14:18:25.792Z,34.65
2018-12-19T14:20:52.992Z,33.95
2018-12-19T14:23:20.292Z,33.30
2018-12-19T14:25:47.556Z,32.55
2018-12-19T14:28:14.808Z,35.92
2018-12-19T14:30:42.104Z,34.25
2018-12-19T14:33:09.316Z,37.80
2018-12-19T14:35:36.682Z,36.68
2018-12-19T14:38:04.061Z,36.58
2018-12-19T14:40:31.269Z,38.50
2018-12-19T14:42:58.584Z,37.53
2018-12-19T14:45:26.144Z,37.38
2018-12-19T14:47:53.572Z,38.17
2018-12-19T14:50:20.790Z,36.13
2018-12-19T14:52:48.021Z,36.35
2018-12-19T14:55:15.220Z,34.38
2018-12-19T14:57:42.596Z,35.35
2018-12-19T15:00:10.181Z,39.40
2018-12-19T15:02:37.418Z,38.88
2018-12-19T15:05:04.813Z,39.03
2018-12-19T15:07:32.277Z,39.00
2018-12-19T15:09:59.645Z,38.40
2018-12-19T15:12:26.833Z,37.42
2018-12-19T15:14:54.063Z,39.30
2018-12-19T15:17:21.279Z,38.38
2018-12-19T15:19:48.496Z,38.58
2018-12-19T15:22:15.768Z,42.62
2018-12-19T15:24:43.119Z,49.05
2018-12-19T15:27:10.343Z,39.92
2018-12-19T15:29:37.613Z,42.43
2018-12-19T15:32:04.813Z,42.73
2018-12-19T15:34:32.140Z,42.40
2018-12-19T15:36:59.356Z,40.00
2018-12-19T15:39:26.566Z,34.05
2018-12-19T15:41:53.875Z,31.65
2018-12-19T15:44:21.109Z,31.05
2018-12-19T15:46:48.340Z,31.85
2018-12-19T15:49:16.019Z,32.00
2018-12-19T15:51:43.420Z,33.85
2018-12-19T15:54:10.826Z,30.30
2018-12-19T15:56:38.327Z,31.62
2018-12-19T15:59:05.873Z,28.87
2018-12-19T16:01:33.222Z,30.80
2018-12-19T16:04:00.545Z,29.55
2018-12-19T16:06:27.899Z,29.23
2018-12-19T16:08:55.298Z,33.20
2018-12-19T16:11:22.530Z,33.00
2018-12-19T16:13:49.841Z,32.15
2018-12-19T16:16:17.204Z,29.15
2018-12-19T16:18:44.400Z,28.45
2018-12-19T16:21:11.720Z,33.48
2018-12-19T16:23:38.912Z,33.50
2018-12-19T16:26:06.141Z,33.65
2018-12-19T16:28:33.355Z,32.75
2018-12-19T16:31:00.566Z,32.90
2018-12-19T16:33:27.782Z,33.33
2018-12-19T16:35:55.931Z,34.20
2018-12-19T16:38:23.309Z,33.60
2018-12-19T16:40:50.544Z,36.58
2018-12-19T16:43:17.833Z,37.10
2018-12-19T16:45:45.180Z,37.83
2018-12-19T16:48:12.574Z,36.70
2018-12-19T16:50:39.847Z,34.15
2018-12-19T16:53:07.170Z,34.98
2018-12-19T16:55:34.411Z,44.35
2018-12-19T16:58:01.720Z,37.60
2018-12-19T17:00:28.986Z,35.25
2018-12-19T17:02:56.219Z,33.45
2018-12-19T17:05:23.581Z,33.73
2018-12-19T17:07:50.828Z,33.90
2018-12-19T17:10:18.153Z,37.75
2018-12-19T17:12:45.394Z,39.20
2018-12-19T17:15:12.729Z,38.45
2018-12-19T17:17:39.968Z,34.55
2018-12-19T17:20:07.440Z,37.28
2018-12-19T17:22:34.669Z,32.03
2018-12-19T17:25:02.176Z,34.35
2018-12-19T17:27:29.472Z,34.08
2018-12-19T17:29:56.737Z,33.15
2018-12-19T17:32:24.401Z,32.38
2018-12-19T17:34:51.672Z,37.17
2018-12-19T17:37:18.918Z,36.30
2018-12-19T17:39:46.253Z,35.33
2018-12-19T17:42:13.482Z,36.45
2018-12-19T17:44:40.709Z,36.83
2018-12-19T17:47:07.934Z,35.70
2018-12-19T17:49:35.223Z,36.05
2018-12-19T17:52:02.828Z,41.40
2018-12-19T17:54:30.123Z,37.98
2018-12-19T17:56:57.378Z,38.45
2018-12-19T17:59:24.613Z,36.68
2018-12-19T18:01:51.899Z,37.78
2018-12-19T18:04:19.188Z,37.38
2018-12-19T18:06:46.979Z,39.13
2018-12-19T18:09:14.266Z,38.17
2018-12-19T18:11:41.532Z,42.13
2018-12-19T18:14:08.888Z,43.05
2018-12-19T18:16:36.381Z,41.15
2018-12-19T18:19:04.690Z,45.55
2018-12-19T18:21:32.157Z,40.55
2018-12-19T18:23:59.580Z,38.53
2018-12-19T18:26:28.154Z,38.13
2018-12-19T18:28:55.454Z,41.85
2018-12-19T18:31:22.731Z,46.55
2018-12-19T18:33:50.246Z,37.65
2018-12-19T18:36:17.509Z,39.33
2018-12-19T18:38:44.822Z,41.55
2018-12-19T18:41:12.049Z,40.45
2018-12-19T18:43:39.288Z,43.28
2018-12-19T18:46:06.565Z,39.58
2018-12-19T18:48:33.888Z,42.65
2018-12-19T18:51:01.174Z,39.78
2018-12-19T18:53:28.470Z,40.92
2018-12-19T18:55:55.728Z,43.35
2018-12-19T18:58:23.041Z,42.43
2018-12-19T19:00:50.488Z,41.88
2018-12-19T19:03:18.024Z,43.42
2018-12-19T19:05:45.426Z,50.80
2018-12-19T19:08:12.715Z,43.68
2018-12-19T19:10:40.001Z,40.25
2018-12-19T19:13:07.352Z,38.83
2018-12-19T19:15:34.697Z,36.75
2018-12-19T19:18:01.957Z,36.13
2018-12-19T19:20:29.396Z,37.80
2018-12-19T19:22:56.756Z,37.48
2018-12-19T19:25:24.096Z,34.20
2018-12-19T19:27:51.344Z,33.90
2018-12-19T19:30:18.718Z,32.55
2018-12-19T19:32:46.365Z,30.60
2018-12-19T19:35:13.731Z,32.40
2018-12-19T19:37:41.004Z,32.88
2018-12-19T19:40:09.202Z,32.05
2018-12-19T19:42:36.521Z,31.27
2018-12-19T19:45:04.553Z,32.65
2018-12-19T19:47:31.969Z,28.87
2018-12-19T19:49:59.169Z,29.45
2018-12-19T19:52:26.415Z,29.90
2018-12-19T19:54:53.698Z,28.55
2018-12-19T19:57:21.089Z,29.02
2018-12-19T19:59:48.437Z,26.95
2018-12-19T20:02:15.753Z,29.80
2018-12-19T20:04:43.079Z,27.42
2018-12-19T20:07:10.336Z,27.85
2018-12-19T20:09:37.693Z,28.50
2018-12-19T20:12:04.974Z,30.05
2018-12-19T20:14:32.612Z,29.12
2018-12-19T20:17:00.330Z,29.92
2018-12-19T20:19:27.980Z,29.48
2018-12-19T20:21:55.206Z,29.85
2018-12-19T20:24:22.445Z,30.15
2018-12-19T20:26:49.680Z,29.35
2018-12-19T20:29:17.029Z,29.32
2018-12-19T20:31:44.532Z,29.45
2018-12-19T20:34:11.793Z,28.92
2018-12-19T20:36:39.168Z,29.40
2018-12-19T20:39:07.408Z,30.12
2018-12-19T20:41:34.625Z,29.07
2018-12-19T20:44:01.861Z,29.67
2018-12-19T20:46:29.244Z,31.23
2018-12-19T20:48:56.485Z,30.37
2018-12-19T20:51:23.916Z,31.85
2018-12-19T20:53:51.304Z,30.68
2018-12-19T20:56:18.640Z,29.75
2018-12-19T20:58:45.978Z,29.90
2018-12-19T21:01:13.436Z,31.27
2018-12-19T21:03:40.832Z,31.57
2018-12-19T21:06:08.145Z,34.85
2018-12-19T21:08:35.589Z,29.77
2018-12-19T21:11:02.925Z,33.90
2018-12-19T21:13:30.258Z,33.73
2018-12-19T21:15:57.536Z,32.93
2018-12-19T21:18:30.713Z,33.10
2018-12-19T21:20:57.933Z,32.70
2018-12-19T21:23:25.154Z,31.65
2018-12-19T21:25:52.396Z,31.27
2018-12-19T21:28:19.624Z,31.15
2018-12-19T21:30:46.812Z,32.55
2018-12-19T21:33:14.313Z,30.10
2018-12-19T21:35:41.673Z,32.63
2018-12-19T21:38:08.978Z,28.95
2018-12-19T21:40:37.888Z,31.87
2018-12-19T21:43:05.783Z,30.50
2018-12-19T21:45:33.115Z,30.23
2018-12-19T21:48:00.486Z,30.88
2018-12-19T21:50:27.931Z,31.05
2018-12-19T21:52:55.375Z,30.05
2018-12-19T21:55:22.813Z,31.95
2018-12-19T21:57:50.093Z,31.35
2018-12-19T22:00:23.750Z,33.48
2018-12-19T22:02:51.075Z,36.08
2018-12-19T22:05:18.418Z,35.48
2018-12-19T22:07:45.661Z,33.70
2018-12-19T22:10:13.267Z,36.15
2018-12-19T22:12:40.901Z,38.63
2018-12-19T22:15:08.255Z,33.55
2018-12-19T22:17:41.347Z,32.95
2018-12-19T22:20:08.599Z,31.90
2018-12-19T22:22:35.887Z,32.08
2018-12-19T22:25:03.808Z,30.45
2018-12-19T22:27:31.079Z,29.60
2018-12-19T22:29:58.334Z,33.30
2018-12-19T22:32:25.657Z,33.88
2018-12-19T22:34:52.973Z,31.80
2018-12-19T22:37:20.294Z,31.15
2018-12-19T22:39:47.632Z,29.05
2018-12-19T22:42:14.900Z,30.32
2018-12-19T22:44:42.407Z,31.57
2018-12-19T22:47:09.673Z,30.77
2018-12-19T22:49:37.070Z,31.85
2018-12-19T22:52:04.492Z,34.33
2018-12-19T22:54:31.759Z,32.40
2018-12-19T22:56:59.330Z,34.45
2018-12-19T22:59:26.711Z,32.17
2018-12-19T23:01:59.630Z,30.20
2018-12-19T23:04:26.927Z,31.50
2018-12-19T23:06:54.367Z,33.53
2018-12-19T23:09:21.652Z,31.33
2018-12-19T23:11:49.166Z,31.05
2018-12-19T23:14:16.377Z,32.90
2018-12-19T23:16:43.713Z,32.55
2018-12-19T23:19:11.047Z,31.33
2018-12-19T23:21:38.468Z,31.57
2018-12-19T23:24:05.908Z,32.78
2018-12-19T23:26:33.243Z,32.63
2018-12-19T23:29:02.385Z,34.48
2018-12-19T23:31:30.055Z,34.23
2018-12-19T23:33:57.562Z,32.10
2018-12-19T23:36:24.831Z,30.88
2018-12-19T23:38:52.251Z,33.70
2018-12-19T23:41:19.503Z,30.25
2018-12-19T23:43:46.854Z,31.65
2018-12-19T23:46:14.529Z,31.27
2018-12-19T23:48:41.859Z,31.97
2018-12-19T23:51:09.080Z,29.90
2018-12-19T23:53:36.361Z,32.58
2018-12-19T23:56:03.737Z,33.53
2018-12-19T23:58:31.056Z,32.58
